Time;durP1;ratioP1;P1;durP2;ratioP2;P2;SDS_P1;SDS_P2;PMS_P1;PMS_P2;Temp;Humidity;BMP_temperature;BMP_pressure;BME280_temperature;BME280_humidity;BME280_pressure;Samples;Min_cycle;Max_cycle;Signal;HPM_P1;HPM_P2
2022/07/31 00:01:28;;;;;;;5.33;2.40;;;;;;;;;;5054717;28;20419;-74
2022/07/31 00:03:54;;;;;;;4.37;2.57;;;;;;;;;;5054193;28;20439;-74
2022/07/31 00:06:20;;;;;;;7.00;2.90;;;;;;;;;;5054600;28;20416;-73
2022/07/31 00:08:46;;;;;;;7.87;3.30;;;;;;;;;;5054546;28;20417;-73
2022/07/31 00:11:12;;;;;;;3.83;2.70;;;;;;;;;;5054323;28;20423;-74
2022/07/31 00:13:38;;;;;;;7.17;3.47;;;;;;;;;;5054546;28;20411;-74
2022/07/31 00:16:04;;;;;;;3.37;2.60;;;;;;;;;;5053946;28;21024;-74
2022/07/31 00:18:30;;;;;;;3.33;2.73;;;;;;;;;;5054259;28;20736;-74
2022/07/31 00:20:56;;;;;;;3.37;2.63;;;;;;;;;;5054414;28;20506;-74
2022/07/31 00:23:22;;;;;;;3.37;2.73;;;;;;;;;;5052638;28;20467;-74
2022/07/31 00:25:48;;;;;;;4.07;3.00;;;;;;;;;;5054123;28;20449;-73
2022/07/31 00:28:14;;;;;;;4.67;2.10;;;;;;;;;;5054235;28;20417;-74
2022/07/31 00:30:40;;;;;;;3.83;2.70;;;;;;;;;;5054152;28;20412;-74
2022/07/31 00:33:06;;;;;;;2.90;2.30;;;;;;;;;;5053671;28;20413;-74
2022/07/31 00:35:32;;;;;;;6.10;2.83;;;;;;;;;;5054085;28;20924;-74
2022/07/31 00:37:58;;;;;;;6.30;2.70;;;;;;;;;;5053867;28;20460;-74
2022/07/31 00:40:25;;;;;;;7.33;3.00;;;;;;;;;;5053652;28;20440;-74
2022/07/31 00:42:51;;;;;;;3.67;2.70;;;;;;;;;;5053519;28;20944;-74
2022/07/31 00:45:17;;;;;;;5.70;3.57;;;;;;;;;;5053593;28;20451;-74
2022/07/31 00:47:43;;;;;;;6.13;3.77;;;;;;;;;;5053481;28;20779;-74
2022/07/31 00:50:09;;;;;;;5.27;3.00;;;;;;;;;;5053641;28;20882;-74
2022/07/31 00:52:35;;;;;;;6.20;3.40;;;;;;;;;;5053261;28;20478;-73
2022/07/31 00:55:01;;;;;;;5.37;3.20;;;;;;;;;;5053504;28;20426;-74
2022/07/31 00:57:27;;;;;;;3.67;2.93;;;;;;;;;;5053337;28;20472;-74
2022/07/31 00:59:53;;;;;;;3.40;3.10;;;;;;;;;;5053274;28;20404;-74
2022/07/31 01:02:19;;;;;;;4.30;3.83;;;;;;;;;;5053381;28;20931;-74
2022/07/31 01:04:45;;;;;;;4.60;3.50;;;;;;;;;;5053118;28;20439;-74
2022/07/31 01:07:11;;;;;;;3.27;2.70;;;;;;;;;;5052100;28;20409;-74
2022/07/31 01:09:37;;;;;;;4.50;2.63;;;;;;;;;;5053279;28;20435;-74
2022/07/31 01:12:13;;;;;;;3.93;3.17;;;;;;;;;;5053232;28;20891;-74
2022/07/31 01:14:40;;;;;;;5.33;3.27;;;;;;;;;;5052843;28;20436;-73
2022/07/31 01:17:06;;;;;;;4.33;3.23;;;;;;;;;;5053329;28;20463;-73
2022/07/31 01:19:36;;;;;;;4.03;3.20;;;;;;;;;;5053260;28;20836;-73
2022/07/31 01:22:20;;;;;;;3.57;3.23;;;;;;;;;;5053098;28;20909;-74
2022/07/31 01:24:49;;;;;;;5.40;3.13;;;;;;;;;;5051578;28;20940;-74
2022/07/31 01:27:26;;;;;;;4.20;3.50;;;;;;;;;;5053128;28;20448;-73
2022/07/31 01:29:55;;;;;;;6.03;3.83;;;;;;;;;;5053093;28;20408;-74
2022/07/31 01:32:25;;;;;;;4.80;3.73;;;;;;;;;;5052683;28;20413;-74
2022/07/31 01:34:54;;;;;;;3.50;3.10;;;;;;;;;;5052731;28;20435;-73
2022/07/31 01:37:25;;;;;;;3.73;3.43;;;;;;;;;;5052837;28;20463;-73
2022/07/31 01:39:59;;;;;;;9.63;3.43;;;;;;;;;;5053014;28;20414;-74
2022/07/31 01:42:25;;;;;;;6.00;3.17;;;;;;;;;;5052710;28;20433;-74
2022/07/31 01:44:53;;;;;;;4.50;3.53;;;;;;;;;;5052657;28;20849;-74
2022/07/31 01:47:19;;;;;;;5.67;3.40;;;;;;;;;;5052808;28;20408;-74
2022/07/31 01:49:46;;;;;;;5.87;3.67;;;;;;;;;;5053022;28;20416;-74
2022/07/31 01:52:14;;;;;;;5.80;3.40;;;;;;;;;;5052789;28;20796;-73
2022/07/31 01:54:40;;;;;;;5.33;2.70;;;;;;;;;;5052455;28;20577;-74
2022/07/31 01:57:06;;;;;;;4.07;3.30;;;;;;;;;;5052642;28;20471;-73
2022/07/31 01:59:34;;;;;;;3.60;3.30;;;;;;;;;;5053019;28;20464;-73
2022/07/31 02:02:00;;;;;;;3.50;3.00;;;;;;;;;;5052871;28;20382;-74
2022/07/31 02:04:27;;;;;;;8.90;3.60;;;;;;;;;;5052391;28;20847;-73
2022/07/31 02:06:54;;;;;;;4.30;3.27;;;;;;;;;;5052807;28;20426;-74
2022/07/31 02:09:20;;;;;;;3.47;3.23;;;;;;;;;;5052929;28;20492;-74
2022/07/31 02:11:47;;;;;;;6.27;3.53;;;;;;;;;;5052762;28;20467;-74
2022/07/31 02:14:13;;;;;;;4.43;4.00;;;;;;;;;;5052192;28;20522;-74
2022/07/31 02:16:39;;;;;;;3.43;3.00;;;;;;;;;;5052806;28;20448;-74
2022/07/31 02:19:07;;;;;;;5.20;3.60;;;;;;;;;;5052362;28;20407;-74
2022/07/31 02:21:33;;;;;;;3.60;3.30;;;;;;;;;;5053182;28;20765;-74
2022/07/31 02:23:59;;;;;;;7.00;4.17;;;;;;;;;;5056128;28;20519;-74
2022/07/31 02:26:27;;;;;;;6.13;3.53;;;;;;;;;;5056532;28;20506;-73
2022/07/31 02:28:53;;;;;;;5.90;3.70;;;;;;;;;;5056319;28;20454;-74
2022/07/31 02:31:21;;;;;;;6.43;3.50;;;;;;;;;;5056213;28;20753;-73
2022/07/31 02:33:47;;;;;;;5.17;4.00;;;;;;;;;;5056005;28;20435;-73
2022/07/31 02:36:13;;;;;;;5.90;3.50;;;;;;;;;;5056193;28;20462;-74
2022/07/31 02:38:40;;;;;;;4.17;3.77;;;;;;;;;;5056059;28;20434;-74
2022/07/31 02:41:06;;;;;;;4.70;3.53;;;;;;;;;;5055970;28;20415;-75
2022/07/31 02:43:33;;;;;;;4.40;4.00;;;;;;;;;;5055585;28;20906;-74
2022/07/31 02:46:00;;;;;;;3.83;3.13;;;;;;;;;;5056012;28;20405;-74
2022/07/31 02:48:26;;;;;;;9.40;4.30;;;;;;;;;;5056294;28;20427;-74
2022/07/31 02:50:52;;;;;;;3.70;3.40;;;;;;;;;;5056288;28;20418;-74
2022/07/31 02:53:18;;;;;;;5.00;3.50;;;;;;;;;;5055523;28;20788;-74
2022/07/31 02:55:45;;;;;;;10.87;3.87;;;;;;;;;;5055938;28;20470;-74
2022/07/31 02:58:11;;;;;;;4.77;3.40;;;;;;;;;;5055852;28;20462;-74
2022/07/31 03:00:37;;;;;;;5.70;3.50;;;;;;;;;;5055737;28;20441;-74
2022/07/31 03:03:04;;;;;;;5.73;4.03;;;;;;;;;;5055286;28;20827;-74
2022/07/31 03:05:30;;;;;;;7.60;3.80;;;;;;;;;;5054324;28;20456;-74
2022/07/31 03:07:56;;;;;;;5.03;3.40;;;;;;;;;;5055651;28;20444;-74
2022/07/31 03:10:22;;;;;;;4.40;3.53;;;;;;;;;;5055581;28;20422;-74
2022/07/31 03:12:49;;;;;;;5.40;4.10;;;;;;;;;;5055775;28;20458;-75
2022/07/31 03:15:16;;;;;;;3.93;3.53;;;;;;;;;;5055754;28;20400;-74
2022/07/31 03:17:43;;;;;;;7.87;4.57;;;;;;;;;;5055238;28;20565;-73
2022/07/31 03:20:10;;;;;;;4.40;3.83;;;;;;;;;;5055470;28;20443;-73
2022/07/31 03:22:38;;;;;;;3.83;3.27;;;;;;;;;;5054913;28;20431;-74
2022/07/31 03:25:05;;;;;;;3.93;3.43;;;;;;;;;;5055310;28;20427;-74
2022/07/31 03:27:31;;;;;;;5.90;3.33;;;;;;;;;;5055218;28;20384;-73
2022/07/31 03:29:57;;;;;;;4.00;3.13;;;;;;;;;;5055260;28;20424;-73
2022/07/31 03:32:23;;;;;;;4.87;3.20;;;;;;;;;;5050079;28;20795;-74
2022/07/31 03:34:49;;;;;;;3.67;3.30;;;;;;;;;;5051412;28;20460;-74
2022/07/31 03:37:15;;;;;;;4.57;3.23;;;;;;;;;;5035093;28;20460;-74
2022/07/31 03:39:41;;;;;;;5.53;4.30;;;;;;;;;;5034863;28;20924;-74
2022/07/31 03:42:10;;;;;;;4.10;3.23;;;;;;;;;;5034991;28;20415;-74
2022/07/31 03:44:37;;;;;;;7.93;4.00;;;;;;;;;;5044813;28;20869;-74
2022/07/31 03:47:03;;;;;;;3.70;3.40;;;;;;;;;;5054875;28;20416;-74
2022/07/31 03:49:31;;;;;;;9.23;3.50;;;;;;;;;;5054998;28;20431;-73
2022/07/31 03:51:57;;;;;;;5.47;3.77;;;;;;;;;;5054744;28;20415;-74
2022/07/31 03:54:23;;;;;;;3.47;3.17;;;;;;;;;;5046571;28;20479;-74
2022/07/31 03:56:50;;;;;;;4.10;3.70;;;;;;;;;;5034832;28;20818;-74
2022/07/31 03:59:17;;;;;;;3.67;3.30;;;;;;;;;;5034860;28;20424;-74
2022/07/31 04:01:46;;;;;;;3.70;3.40;;;;;;;;;;5034606;28;20413;-74
2022/07/31 04:04:12;;;;;;;4.47;3.60;;;;;;;;;;5039398;28;20533;-74
2022/07/31 04:06:39;;;;;;;5.03;3.50;;;;;;;;;;5054912;28;20916;-73
2022/07/31 04:09:05;;;;;;;4.63;3.60;;;;;;;;;;5054663;28;20444;-74
2022/07/31 04:11:31;;;;;;;3.70;3.37;;;;;;;;;;5054548;28;20423;-73
2022/07/31 04:13:57;;;;;;;3.50;3.20;;;;;;;;;;5051046;28;20937;-74
2022/07/31 04:16:23;;;;;;;4.20;3.10;;;;;;;;;;5034502;28;20460;-74
2022/07/31 04:18:49;;;;;;;5.73;3.50;;;;;;;;;;5033148;28;20450;-74
2022/07/31 04:21:15;;;;;;;5.27;3.93;;;;;;;;;;5034487;28;20478;-74
2022/07/31 04:23:41;;;;;;;4.83;3.70;;;;;;;;;;5035759;28;20795;-74
2022/07/31 04:26:07;;;;;;;4.17;3.77;;;;;;;;;;5054246;28;20470;-74
2022/07/31 04:28:33;;;;;;;5.57;3.50;;;;;;;;;;5054350;28;20476;-74
2022/07/31 04:30:59;;;;;;;3.83;3.40;;;;;;;;;;5054244;28;20455;-74
2022/07/31 04:33:25;;;;;;;4.23;3.10;;;;;;;;;;5053742;28;20951;-74
2022/07/31 04:35:51;;;;;;;3.40;3.10;;;;;;;;;;5035629;28;20461;-75
2022/07/31 04:38:18;;;;;;;6.80;3.33;;;;;;;;;;5033951;28;20471;-74
2022/07/31 04:40:44;;;;;;;4.90;3.30;;;;;;;;;;5034003;28;20435;-74
2022/07/31 04:43:11;;;;;;;3.60;3.23;;;;;;;;;;5032339;28;20990;-74
2022/07/31 04:45:37;;;;;;;7.30;3.67;;;;;;;;;;5040010;28;20429;-74
2022/07/31 04:48:03;;;;;;;8.20;3.30;;;;;;;;;;5033785;28;20425;-74
2022/07/31 04:50:29;;;;;;;7.63;2.90;;;;;;;;;;5033769;28;20852;-74
2022/07/31 04:52:55;;;;;;;9.23;2.97;;;;;;;;;;5033652;28;20393;-74
2022/07/31 04:55:23;;;;;;;3.13;2.80;;;;;;;;;;5039306;28;20910;-74
2022/07/31 04:57:49;;;;;;;4.40;2.63;;;;;;;;;;5053558;28;20528;-73
2022/07/31 05:00:15;;;;;;;6.33;2.37;;;;;;;;;;5054005;28;20411;-74
2022/07/31 05:02:41;;;;;;;5.43;3.10;;;;;;;;;;5053555;28;20501;-74
2022/07/31 05:05:07;;;;;;;6.43;2.43;;;;;;;;;;5050003;28;20467;-74
2022/07/31 05:07:33;;;;;;;4.80;2.20;;;;;;;;;;5033741;28;20418;-74
2022/07/31 05:09:59;;;;;;;6.80;2.53;;;;;;;;;;5033748;28;20479;-74
2022/07/31 05:12:25;;;;;;;10.07;2.80;;;;;;;;;;5033276;28;20451;-74
2022/07/31 05:14:52;;;;;;;4.27;2.40;;;;;;;;;;5034290;28;20430;-74
2022/07/31 05:17:18;;;;;;;6.50;2.93;;;;;;;;;;5053414;28;20505;-74
2022/07/31 05:19:44;;;;;;;4.23;2.27;;;;;;;;;;5053480;28;20411;-73
2022/07/31 05:22:11;;;;;;;5.00;2.70;;;;;;;;;;5053439;28;20521;-74
2022/07/31 05:24:37;;;;;;;6.23;2.53;;;;;;;;;;5051700;28;20456;-74
2022/07/31 05:27:03;;;;;;;3.10;1.67;;;;;;;;;;5034184;28;20785;-74
2022/07/31 05:29:30;;;;;;;5.67;2.50;;;;;;;;;;5033369;28;20428;-74
2022/07/31 05:31:56;;;;;;;5.00;2.20;;;;;;;;;;5033161;28;20470;-75
2022/07/31 05:34:22;;;;;;;2.50;2.03;;;;;;;;;;5032617;28;20468;-74
2022/07/31 05:36:48;;;;;;;3.33;2.50;;;;;;;;;;5049270;28;20529;-73
2022/07/31 05:39:16;;;;;;;2.80;2.17;;;;;;;;;;5053038;28;20412;-74
2022/07/31 05:41:42;;;;;;;4.60;2.90;;;;;;;;;;5053042;28;20423;-74
2022/07/31 05:44:08;;;;;;;3.87;2.30;;;;;;;;;;5052671;28;20426;-74
2022/07/31 05:46:34;;;;;;;2.23;2.03;;;;;;;;;;5038161;28;20424;-74
2022/07/31 05:49:00;;;;;;;3.47;2.07;;;;;;;;;;5032985;28;20406;-73
2022/07/31 05:51:26;;;;;;;2.80;1.87;;;;;;;;;;5031927;28;20424;-74
2022/07/31 05:53:52;;;;;;;2.83;2.27;;;;;;;;;;5032770;28;20439;-74
2022/07/31 05:56:18;;;;;;;3.67;2.20;;;;;;;;;;5046919;28;21043;-74
2022/07/31 05:58:44;;;;;;;5.00;1.90;;;;;;;;;;5056850;28;20421;-74
2022/07/31 06:01:10;;;;;;;2.83;2.20;;;;;;;;;;5056874;28;20420;-74
2022/07/31 06:03:39;;;;;;;3.90;2.30;;;;;;;;;;5056548;28;20432;-74
2022/07/31 06:06:05;;;;;;;2.50;1.97;;;;;;;;;;5046505;28;20531;-73
2022/07/31 06:08:32;;;;;;;4.37;2.20;;;;;;;;;;5037118;28;20492;-74
2022/07/31 06:10:58;;;;;;;4.10;2.03;;;;;;;;;;5037102;28;20421;-73
2022/07/31 06:13:28;;;;;;;3.23;2.23;;;;;;;;;;5036525;28;20922;-73
2022/07/31 06:15:55;;;;;;;2.80;2.37;;;;;;;;;;5050569;28;20456;-73
2022/07/31 06:18:21;;;;;;;3.70;1.80;;;;;;;;;;5055500;28;20499;-74
2022/07/31 06:20:47;;;;;;;3.20;2.67;;;;;;;;;;5056583;28;20462;-75
2022/07/31 06:23:13;;;;;;;3.23;2.00;;;;;;;;;;5055892;28;20502;-74
2022/07/31 06:25:39;;;;;;;4.63;1.77;;;;;;;;;;5056401;28;20443;-74
2022/07/31 06:28:05;;;;;;;2.70;2.30;;;;;;;;;;5048657;28;20428;-73
2022/07/31 06:30:31;;;;;;;5.37;2.27;;;;;;;;;;5051413;28;20424;-73
2022/07/31 06:32:57;;;;;;;3.43;1.90;;;;;;;;;;5055839;28;20797;-74
2022/07/31 06:35:23;;;;;;;2.23;1.87;;;;;;;;;;5056200;28;20473;-73
2022/07/31 06:37:49;;;;;;;4.73;2.63;;;;;;;;;;5056359;28;20495;-74
2022/07/31 06:40:15;;;;;;;4.30;2.20;;;;;;;;;;5055882;28;20467;-74
2022/07/31 06:42:43;;;;;;;7.60;2.33;;;;;;;;;;5055828;28;20930;-74
2022/07/31 06:45:09;;;;;;;3.80;2.60;;;;;;;;;;5051073;28;20422;-73
2022/07/31 06:47:35;;;;;;;4.60;2.00;;;;;;;;;;5036083;28;20444;-74
2022/07/31 06:50:01;;;;;;;3.13;2.30;;;;;;;;;;5042401;28;20435;-74
2022/07/31 06:52:27;;;;;;;8.63;2.93;;;;;;;;;;5054611;28;20436;-73
2022/07/31 06:54:53;;;;;;;4.80;2.70;;;;;;;;;;5048895;28;20511;-74
2022/07/31 06:57:19;;;;;;;3.33;2.30;;;;;;;;;;5034621;28;20978;-74
2022/07/31 06:59:45;;;;;;;4.67;2.07;;;;;;;;;;5035885;28;20410;-74
2022/07/31 07:02:11;;;;;;;3.30;2.50;;;;;;;;;;5035978;28;20412;-74
2022/07/31 07:04:37;;;;;;;6.10;2.77;;;;;;;;;;5035792;28;20417;-74
2022/07/31 07:07:03;;;;;;;5.13;3.00;;;;;;;;;;5053850;28;20515;-74
2022/07/31 07:09:29;;;;;;;8.40;2.57;;;;;;;;;;5055775;28;20405;-74
2022/07/31 07:11:55;;;;;;;4.03;2.57;;;;;;;;;;5055811;28;20761;-74
2022/07/31 07:14:21;;;;;;;4.20;2.77;;;;;;;;;;5055311;28;20440;-74
2022/07/31 07:16:47;;;;;;;6.10;3.03;;;;;;;;;;5038630;28;20576;-73
2022/07/31 07:19:13;;;;;;;3.70;3.27;;;;;;;;;;5035495;28;20424;-74
2022/07/31 07:21:39;;;;;;;4.13;2.80;;;;;;;;;;5035480;28;20504;-74
2022/07/31 07:24:05;;;;;;;8.27;2.43;;;;;;;;;;5035299;28;20434;-74
2022/07/31 07:26:31;;;;;;;5.53;3.03;;;;;;;;;;5049725;28;20791;-74
2022/07/31 07:28:58;;;;;;;4.80;2.63;;;;;;;;;;5051076;28;20768;-74
2022/07/31 07:31:24;;;;;;;4.80;3.03;;;;;;;;;;5055399;28;20762;-74
2022/07/31 07:33:50;;;;;;;4.97;2.33;;;;;;;;;;5054883;28;20844;-73
2022/07/31 07:36:17;;;;;;;3.73;2.50;;;;;;;;;;5055168;28;20464;-74
2022/07/31 07:38:43;;;;;;;4.80;3.50;;;;;;;;;;5055190;28;20439;-73
2022/07/31 07:41:09;;;;;;;7.53;3.20;;;;;;;;;;5054545;28;20440;-73
2022/07/31 07:43:35;;;;;;;3.93;2.20;;;;;;;;;;5053197;28;20475;-73
2022/07/31 07:46:01;;;;;;;5.13;2.70;;;;;;;;;;5050303;28;20427;-74
2022/07/31 07:48:27;;;;;;;5.50;2.60;;;;;;;;;;5054756;28;20976;-73
2022/07/31 07:50:53;;;;;;;4.50;2.33;;;;;;;;;;5050289;28;20422;-73
2022/07/31 07:53:19;;;;;;;2.93;2.23;;;;;;;;;;5054324;28;20432;-74
2022/07/31 07:55:44;;;;;;;2.37;2.17;;;;;;;;;;5054899;28;20472;-74
2022/07/31 07:58:10;;;;;;;2.90;2.30;;;;;;;;;;5054953;28;20467;-74
2022/07/31 08:00:36;;;;;;;3.07;2.30;;;;;;;;;;5054809;28;20405;-74
2022/07/31 08:03:02;;;;;;;2.57;1.87;;;;;;;;;;5053880;28;20448;-74
2022/07/31 08:05:29;;;;;;;2.40;2.17;;;;;;;;;;5054619;28;20885;-75
2022/07/31 08:07:54;;;;;;;3.50;2.10;;;;;;;;;;5054510;28;20416;-74
2022/07/31 08:10:21;;;;;;;5.60;1.90;;;;;;;;;;5054661;28;20474;-74
2022/07/31 08:12:47;;;;;;;3.50;2.10;;;;;;;;;;5050417;28;20836;-74
2022/07/31 08:15:12;;;;;;;8.30;1.87;;;;;;;;;;5034741;28;20406;-73
2022/07/31 08:17:39;;;;;;;3.37;1.93;;;;;;;;;;5033283;28;20481;-74
2022/07/31 08:20:05;;;;;;;3.00;1.70;;;;;;;;;;5032719;28;20421;-74
2022/07/31 08:22:31;;;;;;;4.23;1.70;;;;;;;;;;5035170;28;20437;-74
2022/07/31 08:24:57;;;;;;;1.63;1.53;;;;;;;;;;5035237;28;20801;-74
2022/07/31 08:27:23;;;;;;;2.20;1.67;;;;;;;;;;5034386;28;20424;-74
2022/07/31 08:29:49;;;;;;;1.93;1.43;;;;;;;;;;5032875;28;21014;-74
2022/07/31 08:32:16;;;;;;;2.40;1.67;;;;;;;;;;5034274;28;20440;-74
2022/07/31 08:34:42;;;;;;;3.07;1.20;;;;;;;;;;5051697;28;20936;-75
2022/07/31 08:37:08;;;;;;;3.80;1.70;;;;;;;;;;5054043;28;20550;-73
2022/07/31 08:39:34;;;;;;;2.00;1.30;;;;;;;;;;5053981;28;20445;-73
2022/07/31 08:42:04;;;;;;;1.60;1.40;;;;;;;;;;5053945;28;20408;-74
2022/07/31 08:44:30;;;;;;;3.00;1.60;;;;;;;;;;5036548;28;20937;-73
2022/07/31 08:46:57;;;;;;;1.30;1.20;;;;;;;;;;5054034;28;20772;-74
2022/07/31 08:49:27;;;;;;;1.57;1.47;;;;;;;;;;5053762;28;20408;-74
2022/07/31 08:51:54;;;;;;;1.47;1.37;;;;;;;;;;5053636;28;20416;-74
2022/07/31 08:54:22;;;;;;;2.10;1.00;;;;;;;;;;5053300;28;20917;-74
2022/07/31 08:56:51;;;;;;;1.40;1.20;;;;;;;;;;5048514;28;20463;-75
2022/07/31 08:59:18;;;;;;;3.20;1.50;;;;;;;;;;5034048;28;20436;-76
2022/07/31 09:01:44;;;;;;;3.80;1.37;;;;;;;;;;5033815;28;20448;-78
2022/07/31 09:04:10;;;;;;;2.17;1.53;;;;;;;;;;5033442;28;20437;-76
2022/07/31 09:06:36;;;;;;;1.70;1.60;;;;;;;;;;5033947;28;20508;-76
2022/07/31 09:09:03;;;;;;;2.20;1.50;;;;;;;;;;5046689;28;20427;-76
2022/07/31 09:11:30;;;;;;;6.93;1.63;;;;;;;;;;5053543;28;20405;-77
2022/07/31 09:13:57;;;;;;;2.43;1.40;;;;;;;;;;5048375;28;20797;-77
2022/07/31 09:16:23;;;;;;;2.47;1.30;;;;;;;;;;5053216;28;20442;-76
2022/07/31 09:18:59;;;;;;;4.20;1.33;;;;;;;;;;5053901;28;20534;-76
2022/07/31 09:21:26;;;;;;;2.20;1.77;;;;;;;;;;5053180;28;20441;-77
2022/07/31 09:23:53;;;;;;;2.20;1.60;;;;;;;;;;5049430;28;20444;-76
2022/07/31 09:26:19;;;;;;;4.53;1.77;;;;;;;;;;5053017;28;20424;-76
2022/07/31 09:28:47;;;;;;;4.13;1.70;;;;;;;;;;5048389;28;20810;-77
2022/07/31 09:31:14;;;;;;;2.27;2.07;;;;;;;;;;5053082;28;20416;-77
2022/07/31 09:33:45;;;;;;;2.33;1.40;;;;;;;;;;5052704;28;20428;-77
2022/07/31 09:36:11;;;;;;;2.23;1.50;;;;;;;;;;5053252;28;20474;-76
2022/07/31 09:38:38;;;;;;;2.13;1.43;;;;;;;;;;5053119;28;20454;-77
2022/07/31 09:41:10;;;;;;;2.90;1.80;;;;;;;;;;5033426;28;20856;-77
2022/07/31 09:43:37;;;;;;;2.13;1.50;;;;;;;;;;5032703;28;20460;-77
2022/07/31 09:46:04;;;;;;;2.10;1.63;;;;;;;;;;5033071;28;20385;-76
2022/07/31 09:48:30;;;;;;;2.20;1.63;;;;;;;;;;5032905;28;20409;-77
2022/07/31 09:50:58;;;;;;;9.70;1.50;;;;;;;;;;5051593;28;20466;-77
2022/07/31 09:53:24;;;;;;;3.10;1.40;;;;;;;;;;5052707;28;20428;-76
2022/07/31 09:55:50;;;;;;;8.30;1.40;;;;;;;;;;5051667;28;20515;-77
2022/07/31 09:58:16;;;;;;;3.33;1.50;;;;;;;;;;5053075;28;20547;-77
2022/07/31 10:00:42;;;;;;;1.77;1.33;;;;;;;;;;5036276;28;20987;-77
2022/07/31 10:03:11;;;;;;;2.13;1.47;;;;;;;;;;5032627;28;20492;-76
2022/07/31 10:05:37;;;;;;;2.80;1.43;;;;;;;;;;5033106;28;20405;-76
2022/07/31 10:08:03;;;;;;;4.10;1.33;;;;;;;;;;5033114;28;20420;-76
2022/07/31 10:10:30;;;;;;;2.27;1.37;;;;;;;;;;5033882;28;20457;-77
2022/07/31 10:12:59;;;;;;;2.70;1.40;;;;;;;;;;5032595;28;20464;-76
2022/07/31 10:15:25;;;;;;;1.53;1.20;;;;;;;;;;5046025;28;21907;-75
2022/07/31 10:17:52;;;;;;;3.70;1.70;;;;;;;;;;5052726;28;20464;-76
2022/07/31 10:20:20;;;;;;;1.40;1.30;;;;;;;;;;5049316;28;20418;-77
2022/07/31 10:22:48;;;;;;;5.73;1.70;;;;;;;;;;5052206;28;20432;-75
2022/07/31 10:25:21;;;;;;;3.10;1.60;;;;;;;;;;5052565;28;20440;-76
2022/07/31 10:27:48;;;;;;;2.10;1.10;;;;;;;;;;5052248;28;20788;-75
2022/07/31 10:30:14;;;;;;;2.20;1.30;;;;;;;;;;5052306;28;20424;-75
2022/07/31 10:32:40;;;;;;;1.73;1.63;;;;;;;;;;5052058;28;20413;-75
2022/07/31 10:35:07;;;;;;;2.30;1.83;;;;;;;;;;5051416;28;20424;-76
2022/07/31 10:37:36;;;;;;;1.53;1.27;;;;;;;;;;5048310;28;20471;-77
2022/07/31 10:40:02;;;;;;;1.87;1.40;;;;;;;;;;5032635;28;20421;-77
2022/07/31 10:42:37;;;;;;;3.33;1.50;;;;;;;;;;5032849;28;20969;-75
2022/07/31 10:45:05;;;;;;;1.33;1.20;;;;;;;;;;5040034;28;20780;-76
2022/07/31 10:47:31;;;;;;;2.03;1.57;;;;;;;;;;5056036;28;20943;-76
2022/07/31 10:49:57;;;;;;;1.53;1.43;;;;;;;;;;5056350;28;20780;-77
2022/07/31 10:52:35;;;;;;;1.77;1.30;;;;;;;;;;5055868;28;20416;-76
2022/07/31 10:55:01;;;;;;;2.70;1.77;;;;;;;;;;5052968;28;20845;-76
2022/07/31 10:57:29;;;;;;;3.53;1.53;;;;;;;;;;5044007;28;20456;-76
2022/07/31 10:59:54;;;;;;;4.03;1.60;;;;;;;;;;5055954;28;20409;-77
2022/07/31 11:02:36;;;;;;;3.73;1.70;;;;;;;;;;5055618;28;20778;-77
2022/07/31 11:05:22;;;;;;;10.40;1.80;;;;;;;;;;5055833;28;20405;-77
2022/07/31 11:08:01;;;;;;;6.83;1.17;;;;;;;;;;5055947;28;20409;-76
2022/07/31 11:10:27;;;;;;;1.70;1.30;;;;;;;;;;5055825;28;20908;-76
2022/07/31 11:13:12;;;;;;;2.30;1.50;;;;;;;;;;5049141;28;20429;-77
2022/07/31 11:15:38;;;;;;;4.30;1.63;;;;;;;;;;5044948;28;20447;-76
2022/07/31 11:18:10;;;;;;;2.77;1.30;;;;;;;;;;5053117;28;20463;-74
2022/07/31 11:20:36;;;;;;;3.30;1.43;;;;;;;;;;5042457;28;20742;-78
2022/07/31 11:23:04;;;;;;;4.47;1.60;;;;;;;;;;5034909;28;20457;-76
2022/07/31 11:25:32;;;;;;;2.07;1.60;;;;;;;;;;5034257;28;20441;-76
2022/07/31 11:28:08;;;;;;;2.30;1.60;;;;;;;;;;5035382;28;20409;-76
2022/07/31 11:30:46;;;;;;;5.73;1.50;;;;;;;;;;5049189;28;20456;-77
2022/07/31 11:33:12;;;;;;;3.70;1.37;;;;;;;;;;5055000;28;20420;-76
2022/07/31 11:35:38;;;;;;;3.53;1.87;;;;;;;;;;5055146;28;20424;-78
2022/07/31 11:38:04;;;;;;;3.23;1.30;;;;;;;;;;5053445;28;20460;-77
2022/07/31 11:40:30;;;;;;;2.17;1.47;;;;;;;;;;5044648;28;20424;-77
2022/07/31 11:42:57;;;;;;;1.53;1.40;;;;;;;;;;5045259;28;20413;-77
2022/07/31 11:45:23;;;;;;;1.83;1.27;;;;;;;;;;5039373;28;20414;-77
2022/07/31 11:47:54;;;;;;;1.60;1.13;;;;;;;;;;5044529;28;20424;-77
2022/07/31 11:50:20;;;;;;;1.30;1.20;;;;;;;;;;5042412;28;20440;-75
2022/07/31 11:52:47;;;;;;;1.73;1.47;;;;;;;;;;5042881;28;20421;-75
2022/07/31 11:55:14;;;;;;;2.43;1.70;;;;;;;;;;5041363;28;20472;-75
2022/07/31 11:57:41;;;;;;;2.30;1.40;;;;;;;;;;5044650;28;20471;-75
2022/07/31 12:00:11;;;;;;;2.03;1.40;;;;;;;;;;5042320;28;20555;-76
2022/07/31 12:02:44;;;;;;;2.23;1.37;;;;;;;;;;5043805;28;20424;-75
2022/07/31 12:05:12;;;;;;;1.60;1.40;;;;;;;;;;5042446;28;20428;-78
2022/07/31 12:07:39;;;;;;;2.87;1.60;;;;;;;;;;5043634;28;20478;-75
2022/07/31 12:10:05;;;;;;;4.03;1.50;;;;;;;;;;5053619;28;20961;-76
2022/07/31 12:12:31;;;;;;;4.40;1.70;;;;;;;;;;5053642;28;20460;-77
2022/07/31 12:14:57;;;;;;;2.80;1.80;;;;;;;;;;5054453;28;20433;-77
2022/07/31 12:17:23;;;;;;;4.13;1.83;;;;;;;;;;5054315;28;20468;-76
2022/07/31 12:19:49;;;;;;;2.33;1.30;;;;;;;;;;5054407;28;20413;-77
2022/07/31 12:22:16;;;;;;;1.57;1.47;;;;;;;;;;5039427;28;20441;-77
2022/07/31 12:24:43;;;;;;;3.73;1.60;;;;;;;;;;5039516;28;20443;-78
2022/07/31 12:27:13;;;;;;;3.67;1.53;;;;;;;;;;5039492;28;20906;-77
2022/07/31 12:29:39;;;;;;;1.97;1.57;;;;;;;;;;5034297;28;20468;-78
2022/07/31 12:32:06;;;;;;;3.87;1.60;;;;;;;;;;5034935;28;20429;-77
2022/07/31 12:34:39;;;;;;;1.83;1.63;;;;;;;;;;5050474;28;20443;-77
2022/07/31 12:37:15;;;;;;;1.90;1.70;;;;;;;;;;5053837;28;20566;-78
2022/07/31 12:39:47;;;;;;;2.03;1.87;;;;;;;;;;5054113;28;20420;-77
2022/07/31 12:42:23;;;;;;;2.43;2.10;;;;;;;;;;5053787;28;20905;-78
2022/07/31 12:44:50;;;;;;;2.27;2.07;;;;;;;;;;5053084;28;20487;-78
2022/07/31 12:47:26;;;;;;;2.13;1.90;;;;;;;;;;5054876;28;20456;-77
2022/07/31 12:49:52;;;;;;;1.90;1.80;;;;;;;;;;5053922;28;20392;-77
2022/07/31 12:52:18;;;;;;;2.33;2.07;;;;;;;;;;5053754;28;20436;-77
2022/07/31 12:54:44;;;;;;;1.90;1.70;;;;;;;;;;5052853;28;20519;-77
2022/07/31 12:57:10;;;;;;;2.53;2.20;;;;;;;;;;5033782;28;20558;-78
2022/07/31 12:59:36;;;;;;;3.80;2.13;;;;;;;;;;5033716;28;20421;-78
2022/07/31 13:02:03;;;;;;;2.03;1.80;;;;;;;;;;5033329;28;20500;-78
2022/07/31 13:04:29;;;;;;;3.43;1.80;;;;;;;;;;5032942;28;20426;-78
2022/07/31 13:06:55;;;;;;;2.33;2.13;;;;;;;;;;5051472;28;20474;-80
2022/07/31 13:09:21;;;;;;;2.00;1.90;;;;;;;;;;5053326;28;20802;-78
2022/07/31 13:11:48;;;;;;;2.10;2.00;;;;;;;;;;5053344;28;20416;-78
2022/07/31 13:14:14;;;;;;;2.33;1.90;;;;;;;;;;5053093;28;20440;-78
2022/07/31 13:16:40;;;;;;;3.93;1.90;;;;;;;;;;5037007;28;20553;-77
2022/07/31 13:19:06;;;;;;;2.23;1.80;;;;;;;;;;5033525;28;20906;-78
2022/07/31 13:21:33;;;;;;;2.13;1.93;;;;;;;;;;5035329;28;20460;-78
2022/07/31 13:23:59;;;;;;;4.20;2.10;;;;;;;;;;5033045;28;20437;-77
2022/07/31 13:26:28;;;;;;;3.00;2.43;;;;;;;;;;5033255;28;20426;-78
2022/07/31 13:28:54;;;;;;;2.40;2.20;;;;;;;;;;5033324;28;20497;-78
2022/07/31 13:31:20;;;;;;;3.00;2.30;;;;;;;;;;5033131;28;20552;-78
2022/07/31 13:33:46;;;;;;;3.20;2.10;;;;;;;;;;5032808;28;20840;-77
2022/07/31 13:36:12;;;;;;;3.97;2.10;;;;;;;;;;5043510;28;20440;-78
2022/07/31 13:38:38;;;;;;;2.20;2.00;;;;;;;;;;5053092;28;20416;-77
2022/07/31 13:43:48;;;;;;;2.50;2.30;;;;;;;;;;5053320;28;20431;-77
2022/07/31 13:46:14;;;;;;;2.70;1.67;;;;;;;;;;5053246;28;20401;-76
2022/07/31 13:48:40;;;;;;;3.87;1.43;;;;;;;;;;5052816;28;20434;-77
2022/07/31 13:51:06;;;;;;;1.93;1.60;;;;;;;;;;5052896;28;20419;-78
2022/07/31 13:53:32;;;;;;;4.60;2.30;;;;;;;;;;5052570;28;20435;-79
2022/07/31 13:55:58;;;;;;;2.80;1.90;;;;;;;;;;5038868;28;20421;-80
2022/07/31 13:58:28;;;;;;;2.30;1.73;;;;;;;;;;5042351;28;20940;-80
2022/07/31 14:00:54;;;;;;;1.77;1.67;;;;;;;;;;5042122;28;20441;-79
2022/07/31 14:03:20;;;;;;;2.33;2.13;;;;;;;;;;5042915;28;20429;-79
2022/07/31 14:05:47;;;;;;;2.53;2.33;;;;;;;;;;5048937;28;20410;-80
2022/07/31 14:08:13;;;;;;;3.87;2.10;;;;;;;;;;5032915;28;20445;-78
2022/07/31 14:10:39;;;;;;;1.77;1.67;;;;;;;;;;5031718;28;20616;-80
2022/07/31 14:13:05;;;;;;;1.90;1.80;;;;;;;;;;5038215;28;20449;-78
2022/07/31 14:15:31;;;;;;;2.23;1.60;;;;;;;;;;5048418;28;20897;-77
2022/07/31 14:17:57;;;;;;;2.20;2.00;;;;;;;;;;5033204;28;20471;-81
2022/07/31 14:20:24;;;;;;;3.10;1.90;;;;;;;;;;5035705;28;20816;-80
2022/07/31 14:22:50;;;;;;;1.80;1.70;;;;;;;;;;5039965;28;20523;-79
2022/07/31 14:25:16;;;;;;;4.70;2.30;;;;;;;;;;5055862;28;20423;-79
2022/07/31 14:27:44;;;;;;;4.60;1.73;;;;;;;;;;5056200;28;20487;-78
2022/07/31 14:30:11;;;;;;;2.90;1.93;;;;;;;;;;5056200;28;20412;-77
2022/07/31 14:32:38;;;;;;;3.20;2.00;;;;;;;;;;5055819;28;20785;-78
2022/07/31 14:35:04;;;;;;;2.40;2.20;;;;;;;;;;5048208;28;20441;-78
2022/07/31 14:37:30;;;;;;;1.93;1.83;;;;;;;;;;5036364;28;20555;-77
2022/07/31 14:39:56;;;;;;;3.47;2.10;;;;;;;;;;5036443;28;20497;-80
2022/07/31 14:42:22;;;;;;;2.97;2.47;;;;;;;;;;5035898;28;20409;-77
2022/07/31 14:44:48;;;;;;;4.03;2.30;;;;;;;;;;5041469;28;20456;-79